PWSweather.com
Personal Weather Stations
Station Observations
KMDSOLOM1
solomons, Solomons, MD 20688

solomonsSolomons, MD 20688

Lat: 38.32, Lon: -76.45

Elevation: 5

Station Type:

http://www.act-us.info/weather

Latest ConditionsUpdated 4:30:07 AM EST Thursday, Dec 12, 2019
Currently Today's Max Today's Min Today's Average
Temperature 32.3°F0.2°C 35.6°F2.0°C 32.3°F0.2°C 33.5°F0.8°C
Dew Point 21.5°F-5.8°C 23.9°F-4.5°C 21.5°F-5.8°C 22.4°F-5.3°C
Winds 4.0 mph WSW6.4 kmh WSW 13.0 mph -20.9 kmh - - 4.1 mph 6.6 kmh
Wind Gusts 8.0 mph12.9 kmh 17.0 mph27.4 kmh - -
Humidity 64% 66% 60% 63%
Pressure 30.58 in1035.6 mb 30.58 in1035.6 mb 30.51 in1033.2 mb -
Hour Temp Dew Point Humidity Winds Wind Gusts Pressure Precip Precip Rate Daily Precip Total
04:30 AM 32.3°F0.2°C 21.5°F-5.8°C 64% 4.0 mph WSW6.4 kmh WSW 8.0 mph12.9 kmh 30.58 in1035.6 mb 0.00 in0.0 mm 0.00 in0.0 mm 0.00 in0.0 mm
04:25 AM 32.4°F0.2°C 21.6°F-5.8°C 64% 3.0 mph WSW4.8 kmh WSW 8.0 mph12.9 kmh 30.58 in1035.6 mb 0.00 in0.0 mm 0.00 in0.0 mm 0.00 in0.0 mm
04:20 AM 32.5°F0.3°C 21.7°F-5.7°C 64% 3.0 mph WSW4.8 kmh WSW 8.0 mph12.9 kmh 30.58 in1035.6 mb 0.00 in0.0 mm 0.00 in0.0 mm 0.00 in0.0 mm
04:15 AM 32.6°F0.3°C 22.5°F-5.3°C 66% 4.0 mph WSW6.4 kmh WSW 8.0 mph12.9 kmh 30.57 in1035.2 mb 0.00 in0.0 mm 0.00 in0.0 mm 0.00 in0.0 mm
04:10 AM 32.6°F0.3°C 22.5°F-5.3°C 66% 2.0 mph WSW3.2 kmh WSW 9.0 mph14.5 kmh 30.56 in1034.9 mb 0.00 in0.0 mm 0.00 in0.0 mm 0.00 in0.0 mm
04:05 AM 32.6°F0.3°C 21.8°F-5.7°C 64% 3.0 mph WSW4.8 kmh WSW 9.0 mph14.5 kmh 30.56 in1034.9 mb 0.00 in0.0 mm 0.00 in0.0 mm 0.00 in0.0 mm
04:00 AM 32.7°F0.4°C 21.9°F-5.6°C 64% 4.0 mph WSW6.4 kmh WSW 9.0 mph14.5 kmh 30.56 in1034.9 mb 0.00 in0.0 mm 0.00 in0.0 mm 0.00 in0.0 mm
03:55 AM 32.7°F0.4°C 22.3°F-5.4°C 65% 2.0 mph WSW3.2 kmh WSW 11.0 mph17.7 kmh 30.56 in1034.9 mb 0.00 in0.0 mm 0.00 in0.0 mm 0.00 in0.0 mm
03:50 AM 32.8°F0.4°C 22.3°F-5.4°C 65% 4.0 mph WSW6.4 kmh WSW 7.0 mph11.3 kmh 30.57 in1035.2 mb 0.00 in0.0 mm 0.00 in0.0 mm 0.00 in0.0 mm
03:45 AM 32.8°F0.4°C 22.3°F-5.4°C 65% 2.0 mph WSW3.2 kmh WSW 7.0 mph11.3 kmh 30.57 in1035.2 mb 0.00 in0.0 mm 0.00 in0.0 mm 0.00 in0.0 mm
03:40 AM 32.8°F0.4°C 22.3°F-5.4°C 65% 2.0 mph WSW3.2 kmh WSW 10.0 mph16.1 kmh 30.56 in1034.9 mb 0.00 in0.0 mm 0.00 in0.0 mm 0.00 in0.0 mm
03:35 AM 32.7°F0.4°C 22.3°F-5.4°C 65% 10.0 mph WSW16.1 kmh WSW 10.0 mph16.1 kmh 30.56 in1034.9 mb 0.00 in0.0 mm 0.00 in0.0 mm 0.00 in0.0 mm
03:30 AM 32.7°F0.4°C 21.9°F-5.6°C 64% 2.0 mph WSW3.2 kmh WSW 7.0 mph11.3 kmh 30.56 in1034.9 mb 0.00 in0.0 mm 0.00 in0.0 mm 0.00 in0.0 mm
03:25 AM 32.8°F0.4°C 22.3°F-5.4°C 65% 2.0 mph WSW3.2 kmh WSW 12.0 mph19.3 kmh 30.56 in1034.9 mb 0.00 in0.0 mm 0.00 in0.0 mm 0.00 in0.0 mm
03:20 AM 32.6°F0.3°C 21.8°F-5.7°C 64% 5.0 mph SW8.0 kmh SW 12.0 mph19.3 kmh 30.55 in1034.5 mb 0.00 in0.0 mm 0.00 in0.0 mm 0.00 in0.0 mm
03:15 AM 32.4°F0.2°C 21.6°F-5.8°C 64% 7.0 mph WSW11.3 kmh WSW 9.0 mph14.5 kmh 30.55 in1034.5 mb 0.00 in0.0 mm 0.00 in0.0 mm 0.00 in0.0 mm
03:10 AM 32.5°F0.3°C 21.7°F-5.7°C 64% 7.0 mph WSW11.3 kmh WSW 8.0 mph12.9 kmh 30.55 in1034.5 mb 0.00 in0.0 mm 0.00 in0.0 mm 0.00 in0.0 mm
03:05 AM 32.5°F0.3°C 21.7°F-5.7°C 64% Calm Calm 8.0 mph12.9 kmh 30.55 in1034.5 mb 0.00 in0.0 mm 0.00 in0.0 mm 0.00 in0.0 mm
03:00 AM 32.5°F0.3°C 22.1°F-5.5°C 65% 5.0 mph WSW8.0 kmh WSW 7.0 mph11.3 kmh 30.55 in1034.5 mb 0.00 in0.0 mm 0.00 in0.0 mm 0.00 in0.0 mm
02:55 AM 32.5°F0.3°C 21.7°F-5.7°C 64% 8.0 mph WSW12.9 kmh WSW 8.0 mph12.9 kmh 30.55 in1034.5 mb 0.00 in0.0 mm 0.00 in0.0 mm 0.00 in0.0 mm
02:50 AM 32.5°F0.3°C 22.1°F-5.5°C 65% 2.0 mph WSW3.2 kmh WSW 7.0 mph11.3 kmh 30.55 in1034.5 mb 0.00 in0.0 mm 0.00 in0.0 mm 0.00 in0.0 mm
02:45 AM 32.6°F0.3°C 22.5°F-5.3°C 66% 2.0 mph WSW3.2 kmh WSW 7.0 mph11.3 kmh 30.54 in1034.2 mb 0.00 in0.0 mm 0.00 in0.0 mm 0.00 in0.0 mm
02:40 AM 32.7°F0.4°C 22.6°F-5.2°C 66% 3.0 mph WSW4.8 kmh WSW 5.0 mph8.0 kmh 30.54 in1034.2 mb 0.00 in0.0 mm 0.00 in0.0 mm 0.00 in0.0 mm
02:35 AM 32.8°F0.4°C 22.3°F-5.4°C 65% Calm Calm 5.0 mph8.0 kmh 30.55 in1034.5 mb 0.00 in0.0 mm 0.00 in0.0 mm 0.00 in0.0 mm
02:30 AM 32.8°F0.4°C 22.3°F-5.4°C 65% 1.0 mph WSW1.6 kmh WSW 3.0 mph4.8 kmh 30.55 in1034.5 mb 0.00 in0.0 mm 0.00 in0.0 mm 0.00 in0.0 mm
02:25 AM 32.9°F0.5°C 22.4°F-5.3°C 65% 4.0 mph WSW6.4 kmh WSW 7.0 mph11.3 kmh 30.54 in1034.2 mb 0.00 in0.0 mm 0.00 in0.0 mm 0.00 in0.0 mm
02:20 AM 32.9°F0.5°C 22.1°F-5.5°C 64% 2.0 mph WSW3.2 kmh WSW 5.0 mph8.0 kmh 30.54 in1034.2 mb 0.00 in0.0 mm 0.00 in0.0 mm 0.00 in0.0 mm
02:15 AM 33.0°F0.6°C 22.2°F-5.4°C 64% 3.0 mph WSW4.8 kmh WSW 5.0 mph8.0 kmh 30.54 in1034.2 mb 0.00 in0.0 mm 0.00 in0.0 mm 0.00 in0.0 mm
02:10 AM 33.0°F0.6°C 22.2°F-5.4°C 64% 4.0 mph WSW6.4 kmh WSW 8.0 mph12.9 kmh 30.54 in1034.2 mb 0.00 in0.0 mm 0.00 in0.0 mm 0.00 in0.0 mm
02:05 AM 33.0°F0.6°C 22.2°F-5.4°C 64% 2.0 mph WSW3.2 kmh WSW 8.0 mph12.9 kmh 30.54 in1034.2 mb 0.00 in0.0 mm 0.00 in0.0 mm 0.00 in0.0 mm
02:00 AM 33.0°F0.6°C 22.2°F-5.4°C 64% 3.0 mph WSW4.8 kmh WSW 5.0 mph8.0 kmh 30.54 in1034.2 mb 0.00 in0.0 mm 0.00 in0.0 mm 0.00 in0.0 mm
01:55 AM 33.1°F0.6°C 21.5°F-5.8°C 62% 2.0 mph WSW3.2 kmh WSW 4.0 mph6.4 kmh 30.53 in1033.9 mb 0.00 in0.0 mm 0.00 in0.0 mm 0.00 in0.0 mm
01:50 AM 33.3°F0.7°C 21.7°F-5.7°C 62% 2.0 mph WSW3.2 kmh WSW 3.0 mph4.8 kmh 30.54 in1034.2 mb 0.00 in0.0 mm 0.00 in0.0 mm 0.00 in0.0 mm
01:45 AM 33.4°F0.8°C 22.2°F-5.4°C 63% Calm Calm 3.0 mph4.8 kmh 30.53 in1033.9 mb 0.00 in0.0 mm 0.00 in0.0 mm 0.00 in0.0 mm
01:40 AM 33.5°F0.8°C 22.3°F-5.4°C 63% 3.0 mph WSW4.8 kmh WSW 9.0 mph14.5 kmh 30.53 in1033.9 mb 0.00 in0.0 mm 0.00 in0.0 mm 0.00 in0.0 mm
01:35 AM 33.5°F0.8°C 22.3°F-5.4°C 63% 5.0 mph WSW8.0 kmh WSW 9.0 mph14.5 kmh 30.52 in1033.5 mb 0.00 in0.0 mm 0.00 in0.0 mm 0.00 in0.0 mm
01:30 AM 33.7°F0.9°C 22.5°F-5.3°C 63% 5.0 mph WSW8.0 kmh WSW 9.0 mph14.5 kmh 30.52 in1033.5 mb 0.00 in0.0 mm 0.00 in0.0 mm 0.00 in0.0 mm
01:25 AM 33.9°F1.1°C 22.7°F-5.2°C 63% 5.0 mph WSW8.0 kmh WSW 8.0 mph12.9 kmh 30.53 in1033.9 mb 0.00 in0.0 mm 0.00 in0.0 mm 0.00 in0.0 mm
01:20 AM 34.0°F1.1°C 22.7°F-5.2°C 63% 2.0 mph WSW3.2 kmh WSW 8.0 mph12.9 kmh 30.52 in1033.5 mb 0.00 in0.0 mm 0.00 in0.0 mm 0.00 in0.0 mm
01:15 AM 34.1°F1.2°C 22.8°F-5.1°C 63% 2.0 mph WSW3.2 kmh WSW 8.0 mph12.9 kmh 30.53 in1033.9 mb 0.00 in0.0 mm 0.00 in0.0 mm 0.00 in0.0 mm
01:10 AM 34.2°F1.2°C 22.9°F-5.1°C 63% 2.0 mph WSW3.2 kmh WSW 10.0 mph16.1 kmh 30.53 in1033.9 mb 0.00 in0.0 mm 0.00 in0.0 mm 0.00 in0.0 mm
01:05 AM 34.3°F1.3°C 22.7°F-5.2°C 62% 3.0 mph WSW4.8 kmh WSW 10.0 mph16.1 kmh 30.52 in1033.5 mb 0.00 in0.0 mm 0.00 in0.0 mm 0.00 in0.0 mm
01:00 AM 34.5°F1.4°C 22.8°F-5.1°C 62% 7.0 mph WSW11.3 kmh WSW 10.0 mph16.1 kmh 30.53 in1033.9 mb 0.00 in0.0 mm 0.00 in0.0 mm 0.00 in0.0 mm
12:55 AM 34.6°F1.4°C 22.9°F-5.1°C 62% 2.0 mph WSW3.2 kmh WSW 10.0 mph16.1 kmh 30.52 in1033.5 mb 0.00 in0.0 mm 0.00 in0.0 mm 0.00 in0.0 mm
12:50 AM 34.8°F1.6°C 23.5°F-4.7°C 63% 5.0 mph WSW8.0 kmh WSW 10.0 mph16.1 kmh 30.53 in1033.9 mb 0.00 in0.0 mm 0.00 in0.0 mm 0.00 in0.0 mm
12:45 AM 35.0°F1.7°C 23.3°F-4.8°C 62% 3.0 mph WSW4.8 kmh WSW 10.0 mph16.1 kmh 30.52 in1033.5 mb 0.00 in0.0 mm 0.00 in0.0 mm 0.00 in0.0 mm
12:40 AM 35.1°F1.7°C 23.4°F-4.8°C 62% 2.0 mph WSW3.2 kmh WSW 11.0 mph17.7 kmh 30.52 in1033.5 mb 0.00 in0.0 mm 0.00 in0.0 mm 0.00 in0.0 mm
12:35 AM 35.3°F1.8°C 22.8°F-5.1°C 60% 5.0 mph WSW8.0 kmh WSW 11.0 mph17.7 kmh 30.52 in1033.5 mb 0.00 in0.0 mm 0.00 in0.0 mm 0.00 in0.0 mm
12:30 AM 35.4°F1.9°C 23.3°F-4.8°C 61% 8.0 mph WSW12.9 kmh WSW 11.0 mph17.7 kmh 30.52 in1033.5 mb 0.00 in0.0 mm 0.00 in0.0 mm 0.00 in0.0 mm
12:25 AM 35.5°F1.9°C 23.0°F-5.0°C 60% 4.0 mph WSW6.4 kmh WSW 15.0 mph24.1 kmh 30.51 in1033.2 mb 0.00 in0.0 mm 0.00 in0.0 mm 0.00 in0.0 mm
12:20 AM 35.6°F2.0°C 23.9°F-4.5°C 62% 6.0 mph SW9.7 kmh SW 13.0 mph20.9 kmh 30.51 in1033.2 mb 0.00 in0.0 mm 0.00 in0.0 mm 0.00 in0.0 mm
12:15 AM 35.6°F2.0°C 23.5°F-4.7°C 61% 9.0 mph SW14.5 kmh SW 12.0 mph19.3 kmh 30.51 in1033.2 mb 0.00 in0.0 mm 0.00 in0.0 mm 0.00 in0.0 mm
12:10 AM 35.5°F1.9°C 23.4°F-4.8°C 61% 13.0 mph WSW20.9 kmh WSW 17.0 mph27.4 kmh 30.51 in1033.2 mb 0.00 in0.0 mm 0.00 in0.0 mm 0.00 in0.0 mm
12:05 AM 35.5°F1.9°C 23.4°F-4.8°C 61% 11.0 mph WSW17.7 kmh WSW 16.0 mph25.7 kmh 30.51 in1033.2 mb 0.00 in0.0 mm 0.00 in0.0 mm 0.00 in0.0 mm
12:00 AM 35.5°F1.9°C 23.0°F-5.0°C 60% 13.0 mph SW20.9 kmh SW 14.0 mph22.5 kmh 30.51 in1033.2 mb 0.00 in0.0 mm 0.00 in0.0 mm 0.00 in0.0 mm